createdAt,value
2019-03-04T00:00:48.004Z,25.5
2019-03-04T00:01:39.289Z,25.4
2019-03-04T00:02:28.414Z,25.3
2019-03-04T00:03:19.047Z,25.3
2019-03-04T00:04:09.399Z,25.1
2019-03-04T00:04:58.574Z,24.8
2019-03-04T00:05:48.357Z,24.6
2019-03-04T00:06:37.869Z,24.4
2019-03-04T00:07:28.361Z,24.4
2019-03-04T00:08:19.109Z,24.3
2019-03-04T00:09:09.409Z,24.2
2019-03-04T00:09:59.201Z,24.1
2019-03-04T00:10:49.129Z,24.1
2019-03-04T00:11:39.128Z,24.1
2019-03-04T00:12:29.489Z,24
2019-03-04T00:13:19.043Z,23.8
2019-03-04T00:14:09.643Z,24.4
2019-03-04T00:15:00.235Z,25.9
2019-03-04T00:15:49.056Z,27.1
2019-03-04T00:16:40.518Z,28.2
2019-03-04T00:17:29.834Z,29
2019-03-04T00:18:20.115Z,29.5
2019-03-04T00:19:09.883Z,29.9
2019-03-04T00:19:59.690Z,30.2
2019-03-04T00:20:50.266Z,30
2019-03-04T00:21:40.778Z,28.9
2019-03-04T00:22:30.735Z,27.2
2019-03-04T00:23:19.739Z,25.3
2019-03-04T00:24:10.778Z,24.7
2019-03-04T00:25:00.115Z,24.4
2019-03-04T00:25:52.815Z,25.7
2019-03-04T00:26:40.740Z,27.1
2019-03-04T00:27:31.039Z,28.2
2019-03-04T00:28:20.778Z,29.1
2019-03-04T00:29:10.558Z,29.7
2019-03-04T00:30:00.433Z,30.2
2019-03-04T00:30:50.742Z,30.6
2019-03-04T00:31:40.264Z,30.9
2019-03-04T00:32:31.135Z,31.2
2019-03-04T00:33:20.008Z,31.5
2019-03-04T00:34:11.750Z,31.8
2019-03-04T00:35:00.813Z,32
2019-03-04T00:35:51.838Z,32.2
2019-03-04T00:36:40.822Z,32.4
2019-03-04T00:37:31.722Z,32.5
2019-03-04T00:38:21.222Z,32.7
2019-03-04T00:39:11.538Z,32.8
2019-03-04T00:40:01.875Z,32.9
2019-03-04T00:40:51.967Z,32.3
2019-03-04T00:41:41.312Z,32.1
2019-03-04T00:42:31.269Z,31.8
2019-03-04T00:43:21.857Z,31.5
2019-03-04T00:44:11.657Z,31.3
2019-03-04T00:45:02.272Z,31.1
2019-03-04T00:45:52.339Z,30.9
2019-03-04T00:46:41.797Z,30.7
2019-03-04T00:47:32.397Z,30.6
2019-03-04T00:48:22.204Z,30.4
2019-03-04T00:49:11.984Z,30.2
2019-03-04T00:50:03.442Z,29.8
2019-03-04T00:50:52.084Z,29.3
2019-03-04T00:51:42.996Z,28.9
2019-03-04T00:52:32.139Z,28.7
2019-03-04T00:53:23.144Z,28.5
2019-03-04T00:54:12.147Z,28.3
2019-03-04T00:55:02.739Z,28.2
2019-03-04T00:55:53.046Z,28
2019-03-04T00:56:43.330Z,27.9
2019-03-04T00:58:22.951Z,27.7
2019-03-04T00:59:12.931Z,27.6
2019-03-04T01:00:02.624Z,27.4
2019-03-04T01:00:52.514Z,26.7
2019-03-04T01:01:43.130Z,26.3
2019-03-04T01:02:32.322Z,26
2019-03-04T01:03:23.379Z,25.8
2019-03-04T01:04:13.836Z,25.6
2019-03-04T01:05:02.821Z,25.5
2019-03-04T01:05:53.408Z,25.4
2019-03-04T01:06:43.760Z,25.3
2019-03-04T01:07:33.306Z,25.3
2019-03-04T01:08:23.325Z,25.1
2019-03-04T01:09:13.943Z,25.1
2019-03-04T01:10:17.886Z,25
2019-03-04T01:10:52.721Z,24.7
2019-03-04T01:11:43.597Z,25.5
2019-03-04T01:12:34.198Z,26.9
2019-03-04T01:13:23.665Z,27.9
2019-03-04T01:14:13.457Z,28.9
2019-03-04T01:15:04.786Z,29.4
2019-03-04T01:15:53.343Z,29.9
2019-03-04T01:16:43.900Z,30.2
2019-03-04T01:17:33.760Z,30.6
2019-03-04T01:18:24.058Z,30.8
2019-03-04T01:19:14.367Z,31.1
2019-03-04T01:20:05.127Z,31.3
2019-03-04T01:20:54.536Z,31.6
2019-03-04T01:21:45.077Z,31.8
2019-03-04T01:22:35.463Z,31.9
2019-03-04T01:23:25.215Z,32.1
2019-03-04T01:24:14.197Z,32.3
2019-03-04T01:25:04.575Z,32.4
2019-03-04T01:25:55.155Z,32.6
2019-03-04T01:26:45.177Z,32.7
2019-03-04T01:27:34.929Z,32.8
2019-03-04T01:28:24.439Z,32.6
2019-03-04T01:29:15.114Z,32.3
2019-03-04T01:30:04.997Z,31.9
2019-03-04T01:30:54.705Z,31.6
2019-03-04T01:31:46.747Z,31.4
2019-03-04T01:32:34.247Z,31.2
2019-03-04T01:33:24.904Z,31
2019-03-04T01:34:15.452Z,30.8
2019-03-04T01:35:05.864Z,30.6
2019-03-04T01:35:56.359Z,30.5
2019-03-04T01:36:45.327Z,30.3
2019-03-04T01:37:35.079Z,30.2
2019-03-04T01:38:25.989Z,30.1
2019-03-04T01:39:16.591Z,29.4
2019-03-04T01:40:05.064Z,29
2019-03-04T01:40:56.742Z,28.8
2019-03-04T01:41:45.771Z,28.5
2019-03-04T01:42:36.085Z,28.3
2019-03-04T01:43:26.141Z,28.1
2019-03-04T01:44:16.135Z,28
2019-03-04T01:45:06.103Z,27.9
2019-03-04T01:45:56.519Z,27.8
2019-03-04T01:46:46.911Z,27.6
2019-03-04T01:47:36.606Z,27.6
2019-03-04T01:48:26.280Z,27.4
2019-03-04T01:49:15.141Z,27
2019-03-04T01:50:05.853Z,26.4
2019-03-04T01:50:56.320Z,26.1
2019-03-04T01:51:46.628Z,25.9
2019-03-04T01:52:36.539Z,25.7
2019-03-04T01:53:27.078Z,25.5
2019-03-04T01:54:16.273Z,25.4
2019-03-04T01:55:06.440Z,25.3
2019-03-04T01:55:57.516Z,25.3
2019-03-04T01:56:47.868Z,25.1
2019-03-04T01:57:37.043Z,25.1
2019-03-04T01:58:27.428Z,25
2019-03-04T01:59:16.613Z,24.9
2019-03-04T02:00:06.505Z,24.8
2019-03-04T02:00:57.545Z,26.1
2019-03-04T02:01:46.661Z,27.3
2019-03-04T02:02:37.990Z,28.3
2019-03-04T02:03:27.539Z,29.1
2019-03-04T02:04:16.677Z,29.6
2019-03-04T02:05:08.232Z,30
2019-03-04T02:05:57.077Z,30.3
2019-03-04T02:06:47.425Z,30.6
2019-03-04T02:07:37.555Z,30.9
2019-03-04T02:08:27.360Z,31.2
2019-03-04T02:09:17.422Z,31.4
2019-03-04T02:10:07.354Z,31.6
2019-03-04T02:10:57.784Z,31.8
2019-03-04T02:11:48.290Z,32
2019-03-04T02:12:39.203Z,32.1
2019-03-04T02:13:27.665Z,32.3
2019-03-04T02:14:18.285Z,32.4
2019-03-04T02:15:09.229Z,32.6
2019-03-04T02:15:58.147Z,32.7
2019-03-04T02:16:47.849Z,32.9
2019-03-04T02:17:37.654Z,32.3
2019-03-04T02:18:28.542Z,32.1
2019-03-04T02:19:18.694Z,31.8
2019-03-04T02:20:07.984Z,31.5
2019-03-04T02:20:59.012Z,31.3
2019-03-04T02:21:48.249Z,31.1
2019-03-04T02:22:37.775Z,30.9
2019-03-04T02:23:28.466Z,30.8
2019-03-04T02:24:17.837Z,30.6
2019-03-04T02:25:09.329Z,30.4
2019-03-04T02:25:58.296Z,30.3
2019-03-04T02:26:49.159Z,29.8
2019-03-04T02:27:38.231Z,29.3
2019-03-04T02:28:28.193Z,29
2019-03-04T02:29:19.294Z,28.8
2019-03-04T02:30:09.610Z,28.5
2019-03-04T02:30:59.618Z,28.4
2019-03-04T02:31:49.670Z,28.2
2019-03-04T02:32:39.598Z,28.1
2019-03-04T02:33:29.031Z,27.9
2019-03-04T02:34:20.155Z,27.9
2019-03-04T02:35:09.460Z,27.8
2019-03-04T02:35:59.143Z,27.6
2019-03-04T02:36:49.974Z,27.4
2019-03-04T02:37:40.284Z,26.8
2019-03-04T02:38:30.079Z,26.3
2019-03-04T02:39:19.676Z,26.1
2019-03-04T02:40:09.671Z,25.8
2019-03-04T02:40:59.679Z,25.7
2019-03-04T02:41:50.563Z,25.6
2019-03-04T02:42:41.183Z,25.5
2019-03-04T02:43:30.724Z,25.4
2019-03-04T02:44:21.046Z,25.3
2019-03-04T02:45:11.054Z,25.2
2019-03-04T02:46:00.597Z,25.2
2019-03-04T02:46:51.287Z,25.1
2019-03-04T02:47:41.532Z,24.8
2019-03-04T02:48:30.850Z,25.7
2019-03-04T02:49:21.676Z,26.9
2019-03-04T02:50:11.178Z,27.9
2019-03-04T02:51:00.174Z,28.9
2019-03-04T02:51:50.684Z,29.4
2019-03-04T02:52:40.865Z,29.8
2019-03-04T02:53:31.219Z,30.1
2019-03-04T02:54:21.026Z,30.4
2019-03-04T02:55:11.224Z,30.7
2019-03-04T02:56:01.054Z,30.9
2019-03-04T02:56:51.689Z,31.2
2019-03-04T02:57:41.347Z,31.4
2019-03-04T02:58:31.263Z,31.6
2019-03-04T02:59:21.604Z,31.8
2019-03-04T03:00:10.663Z,31.9
2019-03-04T03:01:02.457Z,31.6
2019-03-04T03:01:51.138Z,30.4
2019-03-04T03:02:41.556Z,28.6
2019-03-04T03:03:31.630Z,27.1
2019-03-04T03:04:22.202Z,25.3
2019-03-04T06:05:53.413Z,31.9
2019-03-04T06:06:44.302Z,31.6
2019-03-04T06:07:34.427Z,31.4
2019-03-04T06:08:24.482Z,31.3
2019-03-04T06:09:13.659Z,31.1
2019-03-04T06:10:04.187Z,30.9
2019-03-04T06:10:53.247Z,30.8
2019-03-04T06:11:43.802Z,30.6
2019-03-04T06:12:33.299Z,30.4
2019-03-04T06:13:23.196Z,30.3
2019-03-04T06:14:14.834Z,30.1
2019-03-04T06:15:04.649Z,29.4
2019-03-04T06:15:53.879Z,29
2019-03-04T06:16:54.619Z,28.8
2019-03-04T06:17:33.663Z,28.4
2019-03-04T06:18:23.485Z,28.3
2019-03-04T06:19:14.602Z,28.2
2019-03-04T06:20:04.644Z,28.1
2019-03-04T06:20:54.184Z,27.9
2019-03-04T06:21:44.829Z,27.8
2019-03-04T06:22:35.114Z,27.6
2019-03-04T06:23:24.071Z,27.5
2019-03-04T06:24:14.718Z,27.4
2019-03-04T06:25:07.954Z,26.9
2019-03-04T06:25:55.334Z,26.3
2019-03-04T06:26:45.192Z,26.1
2019-03-04T06:27:35.218Z,25.8
2019-03-04T06:28:24.443Z,25.6
2019-03-04T06:29:15.328Z,25.5
2019-03-04T06:30:04.858Z,25.4
2019-03-04T06:30:57.711Z,25.3
2019-03-04T06:31:45.035Z,25.3
2019-03-04T06:32:35.834Z,25.1
2019-03-04T06:33:26.200Z,25.1
2019-03-04T06:34:14.344Z,25
2019-03-04T06:35:05.205Z,24.9
2019-03-04T06:35:54.680Z,25.1
2019-03-04T06:36:44.823Z,26.5
2019-03-04T06:37:35.150Z,27.7
2019-03-04T06:38:25.500Z,28.8
2019-03-04T06:39:15.527Z,29.4
2019-03-04T06:40:05.627Z,29.9
2019-03-04T06:40:55.132Z,30.4
2019-03-04T06:41:46.305Z,30.8
2019-03-04T06:42:35.277Z,31
2019-03-04T06:43:24.685Z,31.3
2019-03-04T06:44:16.899Z,31.6
2019-03-04T06:45:06.209Z,31.8
2019-03-04T06:45:56.535Z,32.1
2019-03-04T06:46:46.720Z,32.3
2019-03-04T06:47:37.135Z,32.4
2019-03-04T06:48:26.117Z,32.6
2019-03-04T06:49:17.038Z,32.8
2019-03-04T06:50:06.263Z,32.9
2019-03-04T06:50:57.034Z,32.4
2019-03-04T06:51:46.064Z,32.3
2019-03-04T06:52:37.011Z,31.9
2019-03-04T06:53:27.659Z,31.7
2019-03-04T06:54:16.780Z,31.5
2019-03-04T06:55:06.993Z,31.3
2019-03-04T06:55:57.179Z,31.1
2019-03-04T06:56:46.442Z,30.9
2019-03-04T06:57:38.826Z,30.8
2019-03-04T06:58:27.414Z,30.6
2019-03-04T06:59:17.437Z,30.5
2019-03-04T07:00:07.464Z,30.2
2019-03-04T07:00:57.922Z,29.6
2019-03-04T07:01:46.870Z,29.3
2019-03-04T07:02:38.183Z,28.9
2019-03-04T07:03:27.167Z,28.8
2019-03-04T07:05:53.451Z,28.3
2019-03-04T07:06:43.198Z,28.1
2019-03-04T07:07:33.223Z,28.1
2019-03-04T07:08:24.097Z,27.9
2019-03-04T07:10:03.472Z,27.7
2019-03-04T07:10:53.171Z,27.1
2019-03-04T07:11:43.861Z,26.6
2019-03-04T07:12:34.671Z,26.3
2019-03-04T07:13:23.093Z,26.1
2019-03-04T07:14:14.256Z,25.9
2019-03-04T07:15:03.916Z,25.8
2019-03-04T07:15:53.511Z,25.7
2019-03-04T07:16:44.761Z,25.6
2019-03-04T07:17:34.201Z,25.5
2019-03-04T07:18:22.980Z,25.4
2019-03-04T07:19:13.795Z,25.4
2019-03-04T07:20:05.388Z,25.3
2019-03-04T07:20:54.715Z,25.1
2019-03-04T07:21:44.278Z,25.5
2019-03-04T07:22:34.560Z,27
2019-03-04T07:23:24.038Z,28.3
2019-03-04T07:24:15.289Z,29.1
2019-03-04T07:25:03.767Z,29.8
2019-03-04T07:25:54.755Z,30.3
2019-03-04T07:26:44.922Z,30.8
2019-03-04T07:27:34.400Z,31.1
2019-03-04T07:28:26.064Z,31.4
2019-03-04T07:29:17.885Z,31.7
2019-03-04T07:30:04.794Z,31.9
2019-03-04T07:30:56.714Z,32.2
2019-03-04T07:31:45.234Z,32.4
2019-03-04T07:32:35.070Z,32.6
2019-03-04T07:33:25.272Z,32.8
2019-03-04T07:34:14.584Z,33
2019-03-04T07:35:05.148Z,32.4
2019-03-04T07:35:55.997Z,32.4
2019-03-04T07:36:45.534Z,32.3
2019-03-04T07:37:36.410Z,32.1
2019-03-04T07:38:26.164Z,31.9
2019-03-04T07:39:15.720Z,31.8
2019-03-04T07:40:05.753Z,31.6
2019-03-04T07:40:55.824Z,31.4
2019-03-04T07:41:45.636Z,31.3
2019-03-04T07:42:37.814Z,31.1
2019-03-04T07:43:25.211Z,30.9
2019-03-04T07:44:14.284Z,30.8
2019-03-04T07:45:05.581Z,30.3
2019-03-04T07:45:56.054Z,29.6
2019-03-04T07:46:45.712Z,29.3
2019-03-04T07:47:35.211Z,28.9
2019-03-04T07:48:25.309Z,28.7
2019-03-04T07:49:16.169Z,28.6
2019-03-04T07:50:05.056Z,28.4
2019-03-04T07:50:55.219Z,28.3
2019-03-04T07:51:46.358Z,28.1
2019-03-04T07:52:35.368Z,27.9
2019-03-04T07:53:28.496Z,27.9
2019-03-04T07:54:15.444Z,27.8
2019-03-04T07:55:06.318Z,27.5
2019-03-04T07:55:57.198Z,26.9
2019-03-04T07:56:47.831Z,26.5
2019-03-04T07:57:37.864Z,26.2
2019-03-04T07:58:29.626Z,26.1
2019-03-04T07:59:17.700Z,25.9
2019-03-04T08:00:07.673Z,25.8
2019-03-04T08:00:57.156Z,25.7
2019-03-04T08:01:47.548Z,25.6
2019-03-04T08:02:37.075Z,25.5
2019-03-04T08:03:27.387Z,25.4
2019-03-04T08:04:16.911Z,25.4
2019-03-04T08:05:06.788Z,25.3
2019-03-04T08:05:59.221Z,25.3
2019-03-04T08:06:47.808Z,25.2
2019-03-04T08:07:37.422Z,25.1
2019-03-04T08:08:28.565Z,25.1
2019-03-04T08:09:17.785Z,26.7
2019-03-04T08:10:07.345Z,28
2019-03-04T08:10:57.095Z,29
2019-03-04T08:11:46.846Z,29.7
2019-03-04T08:12:38.563Z,30.3
2019-03-04T08:13:27.886Z,30.8
2019-03-04T08:14:18.675Z,31.1
2019-03-04T08:15:08.860Z,31.5
2019-03-04T08:15:57.518Z,31.8
2019-03-04T08:16:48.922Z,32.1
2019-03-04T08:17:38.705Z,32.4
2019-03-04T08:18:27.404Z,32.6
2019-03-04T08:19:19.317Z,32.9
2019-03-04T08:20:08.030Z,33.1
2019-03-04T08:20:58.135Z,32.7
2019-03-04T08:21:48.741Z,32.6
2019-03-04T08:22:38.772Z,32.2
2019-03-04T08:23:29.115Z,31.9
2019-03-04T08:24:18.312Z,31.6
2019-03-04T08:25:09.507Z,31.4
2019-03-04T08:25:59.812Z,31.2
2019-03-04T08:26:48.192Z,31
2019-03-04T08:27:39.324Z,30.9
2019-03-04T08:28:29.854Z,30.7
2019-03-04T08:29:19.751Z,30.5
2019-03-04T08:30:09.854Z,30.4
2019-03-04T08:30:59.633Z,30.3
2019-03-04T08:31:49.931Z,30.1
2019-03-04T08:32:40.068Z,30
2019-03-04T08:33:29.972Z,29.9
2019-03-04T08:34:20.147Z,29.8
2019-03-04T08:35:09.039Z,29.6
2019-03-04T08:35:59.761Z,29.5
2019-03-04T08:36:48.609Z,29.4
2019-03-04T08:37:39.766Z,29.3
2019-03-04T08:38:28.258Z,29.1
2019-03-04T08:39:20.191Z,29.1
2019-03-04T08:40:10.044Z,28.9
2019-03-04T08:41:00.593Z,28.8
2019-03-04T08:41:50.640Z,28.8
2019-03-04T08:42:40.420Z,28.6
2019-03-04T08:43:29.619Z,28.5
2019-03-04T08:44:20.552Z,28.4
2019-03-04T08:45:10.408Z,28.3
2019-03-04T08:46:00.376Z,28.1
2019-03-04T08:46:51.263Z,28
2019-03-04T08:47:39.489Z,27.9
2019-03-04T08:50:10.397Z,27.2
2019-03-04T08:51:03.458Z,28.2
2019-03-04T08:51:51.710Z,29.3
2019-03-04T08:52:39.468Z,30
2019-03-04T08:53:33.555Z,30.4
2019-03-04T08:54:21.333Z,30.9
2019-03-04T08:55:10.520Z,31.3
2019-03-04T08:56:02.028Z,31.7
2019-03-04T08:56:51.700Z,32.1
2019-03-04T08:57:39.885Z,32.4
2019-03-04T08:58:30.753Z,32.7
2019-03-04T08:59:21.060Z,32.9
2019-03-04T09:00:10.913Z,33.2
2019-03-04T09:01:01.474Z,33.2
2019-03-04T09:01:52.060Z,32.8
2019-03-04T09:02:40.488Z,32.4
2019-03-04T09:03:31.680Z,32.1
2019-03-04T09:04:21.446Z,31.8
2019-03-04T09:05:11.807Z,31.6
2019-03-04T09:06:00.462Z,31.3
2019-03-04T09:06:51.322Z,31.1
2019-03-04T09:07:42.187Z,30.9
2019-03-04T09:08:32.636Z,30.8
2019-03-04T09:09:21.510Z,30.6
2019-03-04T09:10:12.440Z,30.5
2019-03-04T09:11:01.645Z,30.3
2019-03-04T09:11:51.215Z,30.2
2019-03-04T09:12:43.859Z,30.1
2019-03-04T09:13:32.650Z,29.9
2019-03-04T09:14:21.873Z,29.9
2019-03-04T09:15:12.229Z,29.8
2019-03-04T09:16:02.005Z,29.6
2019-03-04T09:16:52.321Z,29.5
2019-03-04T09:17:40.974Z,29.4
2019-03-04T09:18:34.457Z,29.3
2019-03-04T09:19:23.146Z,29.2
2019-03-04T09:20:12.889Z,29.1
2019-03-04T09:21:02.712Z,29
2019-03-04T09:21:52.944Z,28.9
2019-03-04T09:22:43.054Z,28.8
2019-03-04T09:23:33.348Z,28.6
2019-03-04T09:24:22.334Z,28.6
2019-03-04T09:25:12.116Z,28.4
2019-03-04T09:26:02.725Z,28.3
2019-03-04T09:26:53.299Z,28.3
2019-03-04T09:27:43.001Z,28.1
2019-03-04T09:28:32.403Z,28.1
2019-03-04T09:29:22.131Z,27.9
2019-03-04T09:30:13.331Z,27.8
2019-03-04T09:31:03.078Z,28
2019-03-04T09:31:53.326Z,29.3
2019-03-04T09:32:43.386Z,30.1
2019-03-04T09:33:33.228Z,30.6
2019-03-04T09:34:23.496Z,31.2
2019-03-04T09:35:13.556Z,31.6
2019-03-04T09:36:04.234Z,32
2019-03-04T09:36:53.948Z,32.4
2019-03-04T09:37:43.416Z,32.7
2019-03-04T09:38:33.758Z,33.1
2019-03-04T09:39:24.433Z,33.3
2019-03-04T09:40:13.461Z,33.3
2019-03-04T09:41:04.314Z,32.9
2019-03-04T09:41:57.160Z,32.6
2019-03-04T09:42:45.585Z,32.2
2019-03-04T09:43:34.950Z,31.9
2019-03-04T09:44:24.733Z,31.7
2019-03-04T09:45:14.552Z,31.4
2019-03-04T09:46:04.080Z,31.3
2019-03-04T09:46:54.926Z,31.1
2019-03-04T09:47:44.737Z,30.9
2019-03-04T09:48:35.290Z,30.8
2019-03-04T09:49:25.102Z,30.6
2019-03-04T09:50:14.869Z,30.4
2019-03-04T09:51:04.709Z,30.3
2019-03-04T09:51:55.852Z,30.2
2019-03-04T09:52:44.282Z,30.1
2019-03-04T09:53:48.502Z,29.9
2019-03-04T09:54:25.145Z,29.8
2019-03-04T09:55:15.292Z,29.8
2019-03-04T09:56:05.363Z,29.6
2019-03-04T09:56:56.092Z,29.5
2019-03-04T09:57:45.697Z,29.4
2019-03-04T09:58:35.514Z,29.3
2019-03-04T09:59:25.777Z,29.2
2019-03-04T10:00:16.373Z,29.1
2019-03-04T10:01:05.886Z,29
2019-03-04T10:01:56.237Z,28.9
2019-03-04T10:02:46.319Z,28.8
2019-03-04T10:03:36.317Z,28.6
2019-03-04T10:04:26.166Z,28.6
2019-03-04T10:06:54.144Z,28.2
2019-03-04T10:07:43.870Z,28.1
2019-03-04T10:08:42.901Z,28
2019-03-04T10:09:23.999Z,27.9
2019-03-04T10:10:15.952Z,27.6
2019-03-04T10:11:02.967Z,28.9
2019-03-04T10:11:53.034Z,29.8
2019-03-04T10:12:44.745Z,30.6
2019-03-04T10:13:34.218Z,31.1
2019-03-04T10:14:23.793Z,31.6
2019-03-04T10:15:17.702Z,32.1
2019-03-04T10:16:03.337Z,32.5
2019-03-04T10:16:54.786Z,32.8
2019-03-04T10:17:43.178Z,33.2
2019-03-04T10:18:34.051Z,33.5
2019-03-04T10:19:23.533Z,33
2019-03-04T10:20:13.328Z,32.9
2019-03-04T10:21:04.308Z,32.5
2019-03-04T10:21:56.456Z,32.1
2019-03-04T10:22:44.378Z,31.9
2019-03-04T10:23:33.828Z,31.6
2019-03-04T10:24:23.680Z,31.4
2019-03-04T10:25:14.193Z,31.2
2019-03-04T10:26:03.771Z,31.1
2019-03-04T10:26:54.879Z,30.9
2019-03-04T10:27:44.371Z,30.8
2019-03-04T10:28:35.037Z,30.6
2019-03-04T10:29:24.516Z,30.4
2019-03-04T10:30:14.901Z,30.3
2019-03-04T10:31:05.220Z,30.2
2019-03-04T10:31:55.532Z,30.1
2019-03-04T10:32:44.745Z,29.9
2019-03-04T10:33:35.478Z,29.8
2019-03-04T10:34:24.862Z,29.7
2019-03-04T10:35:15.787Z,29.6
2019-03-04T10:36:04.152Z,29.5
2019-03-04T10:36:55.623Z,29.4
2019-03-04T10:37:45.914Z,29.3
2019-03-04T10:38:35.127Z,29.2
2019-03-04T10:39:31.439Z,29.1
2019-03-04T10:40:16.805Z,28.9
2019-03-04T10:41:07.599Z,28.9
2019-03-04T10:41:55.427Z,28.8
2019-03-04T10:42:46.032Z,28.6
2019-03-04T10:43:35.242Z,28.6
2019-03-04T10:44:25.847Z,28.4
2019-03-04T10:45:17.544Z,28.3
2019-03-04T10:46:06.252Z,28.3
2019-03-04T10:46:56.322Z,28.1
2019-03-04T10:47:46.617Z,28
2019-03-04T10:48:36.512Z,27.9
2019-03-04T10:49:26.837Z,27.6
2019-03-04T10:50:16.527Z,28.9
2019-03-04T10:51:05.754Z,29.9
2019-03-04T10:51:55.897Z,30.6
2019-03-04T10:52:47.541Z,31.2
2019-03-04T10:53:37.104Z,31.8
2019-03-04T10:54:27.103Z,32.2
2019-03-04T10:55:16.047Z,32.6
2019-03-04T10:56:07.496Z,33.1
2019-03-04T10:56:56.279Z,33.4
2019-03-04T10:57:47.444Z,33.7
2019-03-04T10:58:36.596Z,33.1
2019-03-04T10:59:27.711Z,32.9
2019-03-04T11:00:17.274Z,32.4
2019-03-04T11:01:07.061Z,32.1
2019-03-04T11:01:59.791Z,31.8
2019-03-04T11:02:47.097Z,31.5
2019-03-04T11:03:37.273Z,31.3
2019-03-04T11:04:25.941Z,31.1
2019-03-04T11:05:17.056Z,30.9
2019-03-04T11:06:07.361Z,30.7
2019-03-04T11:06:59.473Z,30.5
2019-03-04T11:07:47.010Z,30.3
2019-03-04T11:08:38.161Z,30.1
2019-03-04T11:09:27.955Z,30
2019-03-04T11:10:16.590Z,29.8
2019-03-04T11:11:08.265Z,29.7
2019-03-04T11:11:57.751Z,29.5
2019-03-04T11:12:48.098Z,29.4
2019-03-04T11:13:37.685Z,29.2
2019-03-04T11:14:27.400Z,29.1
2019-03-04T11:15:18.015Z,28.9
2019-03-04T11:16:07.835Z,28.8
2019-03-04T11:16:58.679Z,28.6
2019-03-04T11:17:48.758Z,28.4
2019-03-04T11:18:37.702Z,28.3
2019-03-04T11:19:28.663Z,28.2
2019-03-04T11:20:18.057Z,28.1
2019-03-04T11:21:08.962Z,27.9
2019-03-04T11:22:48.825Z,27.8
2019-03-04T11:23:39.182Z,27.6
2019-03-04T11:24:29.207Z,27.5
2019-03-04T11:25:18.736Z,27.4
2019-03-04T11:26:09.350Z,27.3
2019-03-04T11:26:59.652Z,27.1
2019-03-04T11:27:49.148Z,27.1
2019-03-04T11:28:39.768Z,27
2019-03-04T11:29:29.882Z,27.9
2019-03-04T11:30:19.326Z,29.3
2019-03-04T11:31:08.879Z,30.1
2019-03-04T11:31:58.624Z,30.8
2019-03-04T11:32:49.309Z,31.4
2019-03-04T11:33:39.553Z,31.9
2019-03-04T11:34:29.114Z,32.4
2019-03-04T11:35:18.854Z,32.8
2019-03-04T11:36:10.387Z,33.2
2019-03-04T11:36:59.250Z,33.5
2019-03-04T11:37:50.419Z,33.1
2019-03-04T11:38:39.346Z,33
2019-03-04T11:39:29.331Z,32.6
2019-03-04T11:40:20.294Z,32.2
2019-03-04T11:41:10.346Z,31.9
2019-03-04T11:41:59.631Z,31.7
2019-03-04T11:42:53.146Z,31.5
2019-03-04T11:43:39.789Z,31.3
2019-03-04T11:44:30.593Z,31.1
2019-03-04T11:45:19.896Z,30.9
2019-03-04T11:46:10.719Z,30.8
2019-03-04T11:47:00.229Z,30.6
2019-03-04T11:47:50.518Z,30.4
2019-03-04T11:48:40.396Z,30.3
2019-03-04T11:49:29.925Z,30.2
2019-03-04T11:50:20.243Z,30.1
2019-03-04T11:51:10.808Z,29.9
2019-03-04T11:52:00.325Z,29.8
2019-03-04T11:52:51.166Z,29.7
2019-03-04T11:53:40.403Z,29.6
2019-03-04T11:54:30.033Z,29.5
2019-03-04T11:55:20.873Z,29.4
2019-03-04T11:56:11.430Z,29.3
2019-03-04T11:57:01.190Z,29.2
2019-03-04T11:57:51.564Z,29.1
2019-03-04T11:58:41.570Z,28.9
2019-03-04T11:59:31.162Z,28.8
2019-03-04T12:00:20.608Z,28.8
2019-03-04T12:01:11.293Z,28.6
2019-03-04T12:02:01.025Z,28.5
2019-03-04T12:02:51.348Z,28.4
2019-03-04T12:03:41.983Z,28.3
2019-03-04T12:04:32.032Z,28.2
2019-03-04T12:07:42.935Z,27.8
2019-03-04T12:08:33.310Z,27.5
2019-03-04T12:09:22.645Z,28.5
2019-03-04T12:10:14.277Z,29.7
2019-03-04T12:11:03.403Z,30.6
2019-03-04T12:11:53.247Z,31.2
2019-03-04T12:12:43.348Z,31.8
2019-03-04T12:13:33.612Z,32.3
2019-03-04T12:14:24.515Z,32.7
2019-03-04T12:15:13.512Z,33.1
2019-03-04T12:16:04.047Z,33.5
2019-03-04T12:16:54.144Z,33.5
2019-03-04T12:17:43.672Z,33.1
2019-03-04T12:18:33.726Z,32.8
2019-03-04T12:19:23.223Z,32.4
2019-03-04T12:20:13.687Z,32.1
2019-03-04T12:21:04.932Z,31.8
2019-03-04T12:21:55.072Z,31.5
2019-03-04T12:22:43.952Z,31.3
2019-03-04T12:23:34.597Z,31.1
2019-03-04T12:24:24.974Z,30.9
2019-03-04T12:25:14.509Z,30.8
2019-03-04T12:26:03.944Z,30.6
2019-03-04T12:26:55.074Z,30.5
2019-03-04T12:27:43.546Z,30.4
2019-03-04T12:28:34.664Z,30.3
2019-03-04T12:29:25.571Z,30.1
2019-03-04T12:30:14.536Z,30
2019-03-04T12:31:05.931Z,29.9
2019-03-04T12:31:54.689Z,29.8
2019-03-04T12:32:45.526Z,29.7
2019-03-04T12:33:35.041Z,29.6
2019-03-04T12:34:34.781Z,29.5
2019-03-04T12:35:14.837Z,29.4
2019-03-04T12:36:05.461Z,29.3
2019-03-04T12:36:54.953Z,29.2
2019-03-04T12:37:46.118Z,29.1
2019-03-04T12:38:36.508Z,28.9
2019-03-04T12:39:25.117Z,28.8
2019-03-04T12:40:15.321Z,28.7
2019-03-04T12:41:05.786Z,28.6
2019-03-04T12:41:58.901Z,28.5
2019-03-04T12:42:46.505Z,28.4
2019-03-04T12:43:35.988Z,28.3
2019-03-04T12:44:24.943Z,28.2
2019-03-04T12:45:15.784Z,28.1
2019-03-04T12:46:05.045Z,27.9
2019-03-04T12:46:55.685Z,27.9
2019-03-04T12:47:46.565Z,27.8
2019-03-04T12:48:36.090Z,27.4
2019-03-04T12:49:27.318Z,28.8
2019-03-04T12:50:15.066Z,30.1
2019-03-04T12:51:06.552Z,30.8
2019-03-04T12:51:54.980Z,31.4
2019-03-04T12:52:46.681Z,31.9
2019-03-04T12:53:46.708Z,32.4
2019-03-04T12:54:26.723Z,32.9
2019-03-04T12:55:15.760Z,33.3
2019-03-04T12:56:06.279Z,33.6
2019-03-04T12:56:56.112Z,33.1
2019-03-04T12:57:46.680Z,33
2019-03-04T12:58:36.457Z,32.6
2019-03-04T12:59:25.527Z,32.3
2019-03-04T13:00:14.887Z,32.1
2019-03-04T13:01:06.787Z,31.9
2019-03-04T13:01:57.217Z,31.8
2019-03-04T13:02:58.687Z,31.6
2019-03-04T13:03:36.829Z,31.3
2019-03-04T13:04:26.914Z,31.2
2019-03-04T13:05:16.709Z,31
2019-03-04T13:06:06.499Z,30.9
2019-03-04T13:06:57.607Z,30.8
2019-03-04T13:07:48.244Z,30.6
2019-03-04T13:08:38.078Z,30.5
2019-03-04T13:09:26.532Z,30.4
2019-03-04T13:10:17.144Z,30.3
2019-03-04T13:11:07.966Z,30.1
2019-03-04T13:11:56.669Z,30
2019-03-04T13:12:47.641Z,29.9
2019-03-04T13:13:37.038Z,29.8
2019-03-04T13:14:27.414Z,29.6
2019-03-04T13:15:17.669Z,29.5
2019-03-04T13:16:07.823Z,29.4
2019-03-04T13:16:58.911Z,29.3
2019-03-04T13:17:47.848Z,29.2
2019-03-04T13:18:39.338Z,29.1
2019-03-04T13:19:27.765Z,29
2019-03-04T13:20:17.997Z,28.9
2019-03-04T13:21:08.411Z,28.8
2019-03-04T13:21:57.857Z,28.7
2019-03-04T13:22:48.784Z,28.6
2019-03-04T13:23:37.943Z,28.4
2019-03-04T13:24:29.006Z,28.3
2019-03-04T13:25:18.368Z,28.3
2019-03-04T13:26:08.473Z,28.1
2019-03-04T13:26:58.466Z,28
2019-03-04T13:27:47.728Z,27.9
2019-03-04T13:28:38.346Z,27.6
2019-03-04T13:29:29.487Z,28.8
2019-03-04T13:30:19.267Z,30.1
2019-03-04T13:31:23.788Z,30.8
2019-03-04T13:31:59.728Z,31.6
2019-03-04T13:32:49.820Z,31.9
2019-03-04T13:33:40.369Z,32.4
2019-03-04T13:34:28.358Z,32.9
2019-03-04T13:35:29.857Z,33.3
2019-03-04T13:36:08.570Z,33.4
2019-03-04T13:36:59.600Z,33.1
2019-03-04T13:37:49.630Z,32.9
2019-03-04T13:38:40.172Z,32.4
2019-03-04T13:39:30.052Z,32.1
2019-03-04T13:40:18.929Z,31.9
2019-03-04T13:41:09.292Z,31.7
2019-03-04T13:41:59.380Z,31.5
2019-03-04T13:42:52.281Z,31.3
2019-03-04T13:43:39.734Z,31.1
2019-03-04T13:44:29.827Z,31
2019-03-04T13:45:19.125Z,30.8
2019-03-04T13:46:09.929Z,30.7
2019-03-04T13:46:59.134Z,30.6
2019-03-04T13:47:50.310Z,30.4
2019-03-04T13:48:40.062Z,30.3
2019-03-04T13:49:29.886Z,30.3
2019-03-04T13:50:20.659Z,30.1
2019-03-04T13:51:11.289Z,30
2019-03-04T13:52:00.029Z,29.9
2019-03-04T13:52:51.654Z,29.8
2019-03-04T13:53:40.942Z,29.7
2019-03-04T13:54:30.999Z,29.6
2019-03-04T13:55:22.985Z,29.4
2019-03-04T13:56:09.299Z,29.3
2019-03-04T13:56:59.612Z,29.3
2019-03-04T13:57:50.464Z,29.1
2019-03-04T13:58:41.534Z,29
2019-03-04T13:59:31.917Z,28.9
2019-03-04T14:00:20.930Z,28.8
2019-03-04T14:01:11.696Z,28.8
2019-03-04T14:02:02.072Z,28.6
2019-03-04T14:02:51.836Z,28.6
2019-03-04T14:03:40.493Z,28.4
2019-03-04T14:04:31.438Z,28.3
2019-03-04T14:05:22.361Z,28.3
2019-03-04T14:08:09.738Z,27.9
2019-03-04T16:07:52.934Z,28.5
2019-03-04T16:08:45.022Z,28.4
2019-03-04T16:09:32.881Z,28.3
2019-03-04T16:10:21.590Z,28.2
2019-03-04T16:12:03.261Z,28.5
2019-03-04T16:12:53.299Z,29.9
2019-03-04T16:13:52.382Z,30.6
2019-03-04T16:14:33.716Z,31.3
2019-03-04T16:15:23.252Z,31.6
2019-03-04T16:16:13.326Z,32.1
2019-03-04T16:17:04.141Z,32.6
2019-03-04T16:17:52.894Z,32.9
2019-03-04T16:18:44.581Z,33.3
2019-03-04T16:19:33.753Z,33.4
2019-03-04T16:20:24.378Z,33
2019-03-04T16:21:13.764Z,32.8